sensor_id;sensor_type;location;lat;lon;timestamp;P1;durP1;ratioP1;P2;durP2;ratioP2
75218;SDS011;63801;49.414;19.474;2023-04-15T00:00:03;5.15;;;1.92;;
75218;SDS011;63801;49.414;19.474;2023-04-15T00:02:16;0.98;;;0.80;;
75218;SDS011;63801;49.414;19.474;2023-04-15T00:04:17;5.35;;;1.60;;
75218;SDS011;63801;49.414;19.474;2023-04-15T00:06:18;6.35;;;2.00;;
75218;SDS011;63801;49.414;19.474;2023-04-15T00:08:18;6.20;;;2.05;;
75218;SDS011;63801;49.414;19.474;2023-04-15T00:10:19;7.22;;;2.55;;
75218;SDS011;63801;49.414;19.474;2023-04-15T00:12:20;5.57;;;2.50;;
75218;SDS011;63801;49.414;19.474;2023-04-15T00:14:20;8.63;;;2.55;;
75218;SDS011;63801;49.414;19.474;2023-04-15T00:16:21;8.27;;;3.13;;
75218;SDS011;63801;49.414;19.474;2023-04-15T00:18:21;3.15;;;1.35;;
75218;SDS011;63801;49.414;19.474;2023-04-15T00:20:22;2.42;;;0.90;;
75218;SDS011;63801;49.414;19.474;2023-04-15T00:22:22;3.13;;;0.88;;
75218;SDS011;63801;49.414;19.474;2023-04-15T00:24:22;1.80;;;1.10;;
75218;SDS011;63801;49.414;19.474;2023-04-15T00:26:23;1.70;;;1.20;;
75218;SDS011;63801;49.414;19.474;2023-04-15T00:28:23;2.65;;;0.80;;
75218;SDS011;63801;49.414;19.474;2023-04-15T00:30:24;1.42;;;1.05;;
75218;SDS011;63801;49.414;19.474;2023-04-15T00:32:25;4.07;;;1.13;;
75218;SDS011;63801;49.414;19.474;2023-04-15T00:34:25;2.15;;;1.00;;
75218;SDS011;63801;49.414;19.474;2023-04-15T00:36:26;2.70;;;0.95;;
75218;SDS011;63801;49.414;19.474;2023-04-15T00:38:27;1.98;;;1.13;;
75218;SDS011;63801;49.414;19.474;2023-04-15T00:40:27;2.00;;;1.25;;
75218;SDS011;63801;49.414;19.474;2023-04-15T00:42:27;1.73;;;1.00;;
75218;SDS011;63801;49.414;19.474;2023-04-15T00:44:28;3.22;;;1.20;;
75218;SDS011;63801;49.414;19.474;2023-04-15T00:46:29;2.63;;;1.08;;
75218;SDS011;63801;49.414;19.474;2023-04-15T00:48:30;2.47;;;1.07;;
75218;SDS011;63801;49.414;19.474;2023-04-15T00:50:31;3.63;;;1.20;;
75218;SDS011;63801;49.414;19.474;2023-04-15T00:52:32;3.17;;;1.25;;
75218;SDS011;63801;49.414;19.474;2023-04-15T00:54:33;2.30;;;1.13;;
75218;SDS011;63801;49.414;19.474;2023-04-15T00:56:34;3.58;;;1.42;;
75218;SDS011;63801;49.414;19.474;2023-04-15T00:58:35;1.20;;;0.80;;
75218;SDS011;63801;49.414;19.474;2023-04-15T01:00:36;2.78;;;1.20;;
75218;SDS011;63801;49.414;19.474;2023-04-15T01:02:36;1.40;;;1.00;;
75218;SDS011;63801;49.414;19.474;2023-04-15T01:04:37;1.67;;;1.00;;
75218;SDS011;63801;49.414;19.474;2023-04-15T01:06:37;1.67;;;1.20;;
75218;SDS011;63801;49.414;19.474;2023-04-15T01:08:37;1.63;;;1.00;;
75218;SDS011;63801;49.414;19.474;2023-04-15T01:10:38;1.73;;;0.95;;
75218;SDS011;63801;49.414;19.474;2023-04-15T01:12:38;1.63;;;1.10;;
75218;SDS011;63801;49.414;19.474;2023-04-15T01:14:39;1.73;;;1.02;;
75218;SDS011;63801;49.414;19.474;2023-04-15T01:16:40;2.22;;;1.20;;
75218;SDS011;63801;49.414;19.474;2023-04-15T01:18:40;2.75;;;1.65;;
75218;SDS011;63801;49.414;19.474;2023-04-15T01:20:41;2.15;;;1.30;;
75218;SDS011;63801;49.414;19.474;2023-04-15T01:22:41;1.73;;;1.00;;
75218;SDS011;63801;49.414;19.474;2023-04-15T01:24:44;2.85;;;1.30;;
75218;SDS011;63801;49.414;19.474;2023-04-15T01:26:54;1.83;;;1.40;;
75218;SDS011;63801;49.414;19.474;2023-04-15T01:28:54;0.90;;;0.80;;
75218;SDS011;63801;49.414;19.474;2023-04-15T01:31:11;1.40;;;1.10;;
75218;SDS011;63801;49.414;19.474;2023-04-15T01:33:12;3.72;;;1.38;;
75218;SDS011;63801;49.414;19.474;2023-04-15T01:35:13;1.73;;;1.13;;
75218;SDS011;63801;49.414;19.474;2023-04-15T01:37:13;1.88;;;1.10;;
75218;SDS011;63801;49.414;19.474;2023-04-15T01:39:14;1.98;;;1.00;;
75218;SDS011;63801;49.414;19.474;2023-04-15T01:41:14;2.97;;;1.20;;
75218;SDS011;63801;49.414;19.474;2023-04-15T01:43:14;1.90;;;1.10;;
75218;SDS011;63801;49.414;19.474;2023-04-15T01:45:14;2.33;;;1.15;;
75218;SDS011;63801;49.414;19.474;2023-04-15T01:47:15;1.90;;;1.00;;
75218;SDS011;63801;49.414;19.474;2023-04-15T01:49:15;3.45;;;1.30;;
75218;SDS011;63801;49.414;19.474;2023-04-15T01:51:16;3.97;;;1.30;;
75218;SDS011;63801;49.414;19.474;2023-04-15T01:53:16;2.58;;;0.95;;
75218;SDS011;63801;49.414;19.474;2023-04-15T01:55:16;1.77;;;1.10;;
75218;SDS011;63801;49.414;19.474;2023-04-15T01:57:17;1.52;;;1.20;;
75218;SDS011;63801;49.414;19.474;2023-04-15T01:59:17;2.03;;;1.20;;
75218;SDS011;63801;49.414;19.474;2023-04-15T02:01:18;0.90;;;0.80;;
75218;SDS011;63801;49.414;19.474;2023-04-15T02:03:18;2.42;;;1.05;;
75218;SDS011;63801;49.414;19.474;2023-04-15T02:05:19;1.88;;;1.00;;
75218;SDS011;63801;49.414;19.474;2023-04-15T02:07:19;1.48;;;1.10;;
75218;SDS011;63801;49.414;19.474;2023-04-15T02:09:19;1.38;;;1.00;;
75218;SDS011;63801;49.414;19.474;2023-04-15T02:11:20;1.67;;;1.17;;
75218;SDS011;63801;49.414;19.474;2023-04-15T02:13:22;1.00;;;0.90;;
75218;SDS011;63801;49.414;19.474;2023-04-15T02:15:22;1.10;;;0.80;;
75218;SDS011;63801;49.414;19.474;2023-04-15T02:17:22;1.38;;;1.13;;
75218;SDS011;63801;49.414;19.474;2023-04-15T02:19:23;0.93;;;0.80;;
75218;SDS011;63801;49.414;19.474;2023-04-15T02:21:25;2.92;;;1.05;;
75218;SDS011;63801;49.414;19.474;2023-04-15T02:23:25;1.50;;;0.98;;
75218;SDS011;63801;49.414;19.474;2023-04-15T02:25:26;2.25;;;0.95;;
75218;SDS011;63801;49.414;19.474;2023-04-15T02:27:26;1.75;;;0.80;;
75218;SDS011;63801;49.414;19.474;2023-04-15T02:29:27;2.85;;;1.42;;
75218;SDS011;63801;49.414;19.474;2023-04-15T02:31:28;3.47;;;1.02;;
75218;SDS011;63801;49.414;19.474;2023-04-15T02:33:28;1.83;;;1.20;;
75218;SDS011;63801;49.414;19.474;2023-04-15T02:35:29;1.98;;;1.08;;
75218;SDS011;63801;49.414;19.474;2023-04-15T02:37:29;0.98;;;0.73;;
75218;SDS011;63801;49.414;19.474;2023-04-15T02:39:30;2.85;;;0.80;;
75218;SDS011;63801;49.414;19.474;2023-04-15T02:41:31;1.98;;;1.17;;
75218;SDS011;63801;49.414;19.474;2023-04-15T02:43:31;2.83;;;1.23;;
75218;SDS011;63801;49.414;19.474;2023-04-15T02:45:32;1.33;;;0.90;;
75218;SDS011;63801;49.414;19.474;2023-04-15T02:47:33;1.95;;;1.25;;
75218;SDS011;63801;49.414;19.474;2023-04-15T02:49:34;1.17;;;0.88;;
75218;SDS011;63801;49.414;19.474;2023-04-15T02:51:35;2.00;;;0.90;;
75218;SDS011;63801;49.414;19.474;2023-04-15T02:53:35;1.95;;;1.00;;
75218;SDS011;63801;49.414;19.474;2023-04-15T02:55:36;1.00;;;0.90;;
75218;SDS011;63801;49.414;19.474;2023-04-15T02:57:36;1.40;;;1.10;;
75218;SDS011;63801;49.414;19.474;2023-04-15T02:59:38;1.05;;;0.80;;
75218;SDS011;63801;49.414;19.474;2023-04-15T03:01:38;1.42;;;0.90;;
75218;SDS011;63801;49.414;19.474;2023-04-15T03:03:38;1.42;;;0.80;;
75218;SDS011;63801;49.414;19.474;2023-04-15T03:05:39;1.17;;;0.95;;
75218;SDS011;63801;49.414;19.474;2023-04-15T03:07:39;2.25;;;1.27;;
75218;SDS011;63801;49.414;19.474;2023-04-15T03:09:40;1.05;;;0.80;;
75218;SDS011;63801;49.414;19.474;2023-04-15T03:11:40;2.20;;;0.90;;
75218;SDS011;63801;49.414;19.474;2023-04-15T03:13:43;3.53;;;0.90;;
75218;SDS011;63801;49.414;19.474;2023-04-15T03:15:47;1.90;;;0.95;;
75218;SDS011;63801;49.414;19.474;2023-04-15T03:17:47;2.63;;;1.00;;
75218;SDS011;63801;49.414;19.474;2023-04-15T03:19:49;2.50;;;1.50;;
75218;SDS011;63801;49.414;19.474;2023-04-15T03:21:49;1.90;;;1.00;;
75218;SDS011;63801;49.414;19.474;2023-04-15T03:23:51;1.58;;;0.80;;
75218;SDS011;63801;49.414;19.474;2023-04-15T03:25:51;3.38;;;0.90;;
75218;SDS011;63801;49.414;19.474;2023-04-15T03:27:54;2.13;;;0.82;;
75218;SDS011;63801;49.414;19.474;2023-04-15T03:29:55;2.97;;;1.20;;
75218;SDS011;63801;49.414;19.474;2023-04-15T03:31:55;1.00;;;0.85;;
75218;SDS011;63801;49.414;19.474;2023-04-15T03:33:56;1.95;;;0.93;;
75218;SDS011;63801;49.414;19.474;2023-04-15T03:35:56;0.95;;;0.70;;
75218;SDS011;63801;49.414;19.474;2023-04-15T03:37:56;2.13;;;0.90;;
75218;SDS011;63801;49.414;19.474;2023-04-15T03:39:57;1.20;;;0.82;;
75218;SDS011;63801;49.414;19.474;2023-04-15T03:41:57;2.17;;;1.10;;
75218;SDS011;63801;49.414;19.474;2023-04-15T03:43:58;3.70;;;1.50;;
75218;SDS011;63801;49.414;19.474;2023-04-15T03:45:58;2.03;;;1.13;;
75218;SDS011;63801;49.414;19.474;2023-04-15T03:47:59;2.30;;;0.70;;
75218;SDS011;63801;49.414;19.474;2023-04-15T03:49:59;2.97;;;1.40;;
75218;SDS011;63801;49.414;19.474;2023-04-15T03:52:00;5.13;;;2.40;;
75218;SDS011;63801;49.414;19.474;2023-04-15T03:54:00;4.82;;;2.25;;
75218;SDS011;63801;49.414;19.474;2023-04-15T03:56:01;3.75;;;1.67;;
75218;SDS011;63801;49.414;19.474;2023-04-15T03:58:01;3.90;;;1.80;;
75218;SDS011;63801;49.414;19.474;2023-04-15T04:00:01;5.43;;;3.08;;
75218;SDS011;63801;49.414;19.474;2023-04-15T04:02:02;6.82;;;3.78;;
75218;SDS011;63801;49.414;19.474;2023-04-15T04:04:02;9.75;;;4.40;;
75218;SDS011;63801;49.414;19.474;2023-04-15T04:06:03;5.72;;;3.70;;
75218;SDS011;63801;49.414;19.474;2023-04-15T04:08:03;3.17;;;2.00;;
75218;SDS011;63801;49.414;19.474;2023-04-15T04:10:04;4.35;;;1.70;;
75218;SDS011;63801;49.414;19.474;2023-04-15T04:12:05;2.58;;;1.20;;
75218;SDS011;63801;49.414;19.474;2023-04-15T04:14:05;2.05;;;0.90;;
75218;SDS011;63801;49.414;19.474;2023-04-15T04:16:05;1.25;;;0.80;;
75218;SDS011;63801;49.414;19.474;2023-04-15T04:18:06;1.20;;;0.90;;
75218;SDS011;63801;49.414;19.474;2023-04-15T04:20:06;2.63;;;1.05;;
75218;SDS011;63801;49.414;19.474;2023-04-15T04:22:08;3.35;;;1.85;;
75218;SDS011;63801;49.414;19.474;2023-04-15T04:24:08;4.82;;;2.38;;
75218;SDS011;63801;49.414;19.474;2023-04-15T04:26:09;5.43;;;2.40;;
75218;SDS011;63801;49.414;19.474;2023-04-15T04:28:09;11.48;;;4.80;;
75218;SDS011;63801;49.414;19.474;2023-04-15T04:30:10;11.25;;;5.30;;
75218;SDS011;63801;49.414;19.474;2023-04-15T04:32:11;3.63;;;1.23;;
75218;SDS011;63801;49.414;19.474;2023-04-15T04:34:11;5.07;;;2.60;;
75218;SDS011;63801;49.414;19.474;2023-04-15T04:36:12;5.72;;;2.30;;
75218;SDS011;63801;49.414;19.474;2023-04-15T04:38:12;3.78;;;1.52;;
75218;SDS011;63801;49.414;19.474;2023-04-15T04:40:12;6.80;;;1.92;;
75218;SDS011;63801;49.414;19.474;2023-04-15T04:42:13;4.57;;;2.10;;
75218;SDS011;63801;49.414;19.474;2023-04-15T04:44:13;7.75;;;2.42;;
75218;SDS011;63801;49.414;19.474;2023-04-15T04:46:14;6.45;;;2.45;;
75218;SDS011;63801;49.414;19.474;2023-04-15T04:48:14;5.07;;;2.40;;
75218;SDS011;63801;49.414;19.474;2023-04-15T04:50:15;5.28;;;2.22;;
75218;SDS011;63801;49.414;19.474;2023-04-15T04:52:15;6.45;;;2.40;;
75218;SDS011;63801;49.414;19.474;2023-04-15T04:54:16;6.30;;;2.60;;
75218;SDS011;63801;49.414;19.474;2023-04-15T04:56:16;9.50;;;3.97;;
75218;SDS011;63801;49.414;19.474;2023-04-15T04:58:17;10.68;;;3.85;;
75218;SDS011;63801;49.414;19.474;2023-04-15T05:00:17;7.82;;;2.17;;
75218;SDS011;63801;49.414;19.474;2023-04-15T05:02:18;4.35;;;1.52;;
75218;SDS011;63801;49.414;19.474;2023-04-15T05:04:18;2.33;;;1.10;;
75218;SDS011;63801;49.414;19.474;2023-04-15T05:06:18;1.70;;;0.80;;
75218;SDS011;63801;49.414;19.474;2023-04-15T05:08:19;2.83;;;0.95;;
75218;SDS011;63801;49.414;19.474;2023-04-15T05:10:19;1.35;;;0.75;;
75218;SDS011;63801;49.414;19.474;2023-04-15T05:12:20;0.88;;;0.80;;
75218;SDS011;63801;49.414;19.474;2023-04-15T05:14:20;2.28;;;0.80;;
75218;SDS011;63801;49.414;19.474;2023-04-15T05:16:21;4.15;;;0.93;;
75218;SDS011;63801;49.414;19.474;2023-04-15T05:18:21;1.42;;;0.80;;
75218;SDS011;63801;49.414;19.474;2023-04-15T05:20:21;2.20;;;0.70;;
75218;SDS011;63801;49.414;19.474;2023-04-15T05:22:22;2.47;;;0.68;;
75218;SDS011;63801;49.414;19.474;2023-04-15T05:24:22;1.30;;;0.80;;
75218;SDS011;63801;49.414;19.474;2023-04-15T05:26:23;3.05;;;0.75;;
75218;SDS011;63801;49.414;19.474;2023-04-15T05:28:23;4.30;;;1.30;;
75218;SDS011;63801;49.414;19.474;2023-04-15T05:30:23;16.83;;;8.68;;
75218;SDS011;63801;49.414;19.474;2023-04-15T05:32:24;14.98;;;8.30;;
75218;SDS011;63801;49.414;19.474;2023-04-15T05:34:24;16.73;;;8.90;;
75218;SDS011;63801;49.414;19.474;2023-04-15T05:36:25;22.20;;;10.48;;
75218;SDS011;63801;49.414;19.474;2023-04-15T05:38:25;18.52;;;9.38;;
75218;SDS011;63801;49.414;19.474;2023-04-15T05:40:26;18.02;;;9.82;;
75218;SDS011;63801;49.414;19.474;2023-04-15T05:42:27;34.13;;;16.98;;
75218;SDS011;63801;49.414;19.474;2023-04-15T05:44:27;26.10;;;10.82;;
75218;SDS011;63801;49.414;19.474;2023-04-15T05:46:27;22.25;;;10.65;;
75218;SDS011;63801;49.414;19.474;2023-04-15T05:48:28;20.98;;;10.63;;
75218;SDS011;63801;49.414;19.474;2023-04-15T05:50:28;19.45;;;8.52;;
75218;SDS011;63801;49.414;19.474;2023-04-15T05:52:28;20.25;;;10.63;;
75218;SDS011;63801;49.414;19.474;2023-04-15T05:54:29;12.23;;;6.70;;
75218;SDS011;63801;49.414;19.474;2023-04-15T05:56:30;9.82;;;5.03;;
75218;SDS011;63801;49.414;19.474;2023-04-15T05:58:30;9.65;;;4.95;;
75218;SDS011;63801;49.414;19.474;2023-04-15T06:00:31;8.57;;;3.78;;
75218;SDS011;63801;49.414;19.474;2023-04-15T06:02:31;11.38;;;4.13;;
75218;SDS011;63801;49.414;19.474;2023-04-15T06:04:32;8.35;;;4.28;;
75218;SDS011;63801;49.414;19.474;2023-04-15T06:06:32;6.75;;;3.88;;
75218;SDS011;63801;49.414;19.474;2023-04-15T06:08:33;5.68;;;3.17;;
75218;SDS011;63801;49.414;19.474;2023-04-15T06:10:34;5.50;;;2.80;;
75218;SDS011;63801;49.414;19.474;2023-04-15T06:12:35;8.55;;;3.50;;
75218;SDS011;63801;49.414;19.474;2023-04-15T06:14:36;6.78;;;3.22;;
75218;SDS011;63801;49.414;19.474;2023-04-15T06:16:37;5.22;;;2.00;;
75218;SDS011;63801;49.414;19.474;2023-04-15T06:18:37;3.70;;;1.70;;
75218;SDS011;63801;49.414;19.474;2023-04-15T06:20:38;4.30;;;1.48;;
75218;SDS011;63801;49.414;19.474;2023-04-15T06:22:38;2.47;;;1.10;;
75218;SDS011;63801;49.414;19.474;2023-04-15T06:24:38;3.30;;;1.60;;
75218;SDS011;63801;49.414;19.474;2023-04-15T06:26:39;2.00;;;1.00;;
75218;SDS011;63801;49.414;19.474;2023-04-15T06:28:39;1.58;;;1.00;;
75218;SDS011;63801;49.414;19.474;2023-04-15T06:30:39;4.70;;;0.80;;
75218;SDS011;63801;49.414;19.474;2023-04-15T06:32:40;1.73;;;0.70;;
75218;SDS011;63801;49.414;19.474;2023-04-15T06:34:40;2.75;;;0.82;;
75218;SDS011;63801;49.414;19.474;2023-04-15T06:36:40;0.75;;;0.63;;
75218;SDS011;63801;49.414;19.474;2023-04-15T06:38:41;0.90;;;0.60;;
75218;SDS011;63801;49.414;19.474;2023-04-15T06:40:41;0.85;;;0.60;;
75218;SDS011;63801;49.414;19.474;2023-04-15T06:42:42;1.50;;;0.90;;
75218;SDS011;63801;49.414;19.474;2023-04-15T06:44:42;2.75;;;0.98;;
75218;SDS011;63801;49.414;19.474;2023-04-15T06:46:42;1.00;;;0.80;;
75218;SDS011;63801;49.414;19.474;2023-04-15T06:48:43;2.65;;;1.00;;
75218;SDS011;63801;49.414;19.474;2023-04-15T06:50:44;6.70;;;0.98;;
75218;SDS011;63801;49.414;19.474;2023-04-15T06:52:45;1.98;;;1.02;;
75218;SDS011;63801;49.414;19.474;2023-04-15T06:54:45;1.77;;;1.20;;
75218;SDS011;63801;49.414;19.474;2023-04-15T06:56:45;1.23;;;0.90;;
75218;SDS011;63801;49.414;19.474;2023-04-15T06:58:46;4.72;;;1.17;;
75218;SDS011;63801;49.414;19.474;2023-04-15T07:00:47;4.22;;;1.80;;
75218;SDS011;63801;49.414;19.474;2023-04-15T07:02:48;4.47;;;1.98;;
75218;SDS011;63801;49.414;19.474;2023-04-15T07:04:48;2.70;;;1.70;;
75218;SDS011;63801;49.414;19.474;2023-04-15T07:06:48;5.40;;;2.70;;
75218;SDS011;63801;49.414;19.474;2023-04-15T07:08:49;6.40;;;3.17;;
75218;SDS011;63801;49.414;19.474;2023-04-15T07:10:49;4.93;;;2.50;;
75218;SDS011;63801;49.414;19.474;2023-04-15T07:12:49;3.88;;;2.50;;
75218;SDS011;63801;49.414;19.474;2023-04-15T07:14:50;6.75;;;3.05;;
75218;SDS011;63801;49.414;19.474;2023-04-15T07:16:50;5.20;;;2.60;;
75218;SDS011;63801;49.414;19.474;2023-04-15T07:18:51;7.25;;;3.35;;
75218;SDS011;63801;49.414;19.474;2023-04-15T07:20:51;4.90;;;2.38;;
75218;SDS011;63801;49.414;19.474;2023-04-15T07:22:51;3.03;;;2.03;;
75218;SDS011;63801;49.414;19.474;2023-04-15T07:24:52;3.08;;;2.30;;
75218;SDS011;63801;49.414;19.474;2023-04-15T07:26:53;3.03;;;1.92;;
75218;SDS011;63801;49.414;19.474;2023-04-15T07:28:55;5.35;;;3.35;;
75218;SDS011;63801;49.414;19.474;2023-04-15T07:30:55;4.93;;;2.90;;
75218;SDS011;63801;49.414;19.474;2023-04-15T07:32:57;3.67;;;2.33;;
75218;SDS011;63801;49.414;19.474;2023-04-15T07:34:57;3.50;;;2.40;;
75218;SDS011;63801;49.414;19.474;2023-04-15T07:36:58;4.10;;;2.65;;
75218;SDS011;63801;49.414;19.474;2023-04-15T07:38:58;5.28;;;2.85;;
75218;SDS011;63801;49.414;19.474;2023-04-15T07:41:00;4.20;;;2.70;;
75218;SDS011;63801;49.414;19.474;2023-04-15T07:43:01;9.35;;;4.75;;
75218;SDS011;63801;49.414;19.474;2023-04-15T07:45:02;2.58;;;2.22;;
75218;SDS011;63801;49.414;19.474;2023-04-15T07:47:03;3.83;;;2.75;;
75218;SDS011;63801;49.414;19.474;2023-04-15T07:49:03;4.93;;;2.65;;
75218;SDS011;63801;49.414;19.474;2023-04-15T07:51:03;6.25;;;2.83;;
75218;SDS011;63801;49.414;19.474;2023-04-15T07:53:04;4.28;;;2.70;;
75218;SDS011;63801;49.414;19.474;2023-04-15T07:55:05;5.00;;;3.08;;
75218;SDS011;63801;49.414;19.474;2023-04-15T07:57:09;6.90;;;2.95;;
75218;SDS011;63801;49.414;19.474;2023-04-15T07:59:10;6.55;;;3.67;;
75218;SDS011;63801;49.414;19.474;2023-04-15T08:01:10;4.68;;;3.05;;
75218;SDS011;63801;49.414;19.474;2023-04-15T08:03:11;6.63;;;3.38;;
75218;SDS011;63801;49.414;19.474;2023-04-15T08:05:12;10.52;;;5.35;;
75218;SDS011;63801;49.414;19.474;2023-04-15T08:07:13;8.35;;;4.72;;
75218;SDS011;63801;49.414;19.474;2023-04-15T08:09:13;9.00;;;5.25;;
75218;SDS011;63801;49.414;19.474;2023-04-15T08:11:13;7.63;;;4.60;;
75218;SDS011;63801;49.414;19.474;2023-04-15T08:13:13;7.75;;;4.57;;
75218;SDS011;63801;49.414;19.474;2023-04-15T08:15:14;7.07;;;4.25;;
75218;SDS011;63801;49.414;19.474;2023-04-15T08:17:14;10.02;;;4.80;;
75218;SDS011;63801;49.414;19.474;2023-04-15T08:19:15;9.07;;;3.90;;
75218;SDS011;63801;49.414;19.474;2023-04-15T08:21:16;27.73;;;13.85;;
75218;SDS011;63801;49.414;19.474;2023-04-15T08:23:17;7.35;;;4.30;;
75218;SDS011;63801;49.414;19.474;2023-04-15T08:25:18;5.50;;;3.75;;
75218;SDS011;63801;49.414;19.474;2023-04-15T08:27:21;4.63;;;3.55;;
75218;SDS011;63801;49.414;19.474;2023-04-15T08:29:21;4.75;;;3.00;;
75218;SDS011;63801;49.414;19.474;2023-04-15T08:31:22;4.88;;;2.92;;
75218;SDS011;63801;49.414;19.474;2023-04-15T08:33:22;6.57;;;3.70;;
75218;SDS011;63801;49.414;19.474;2023-04-15T08:35:23;5.28;;;3.42;;
75218;SDS011;63801;49.414;19.474;2023-04-15T08:37:24;4.67;;;2.93;;
75218;SDS011;63801;49.414;19.474;2023-04-15T08:39:25;9.07;;;4.90;;
75218;SDS011;63801;49.414;19.474;2023-04-15T08:41:26;50.53;;;21.38;;
75218;SDS011;63801;49.414;19.474;2023-04-15T08:43:43;18.95;;;10.70;;
75218;SDS011;63801;49.414;19.474;2023-04-15T08:45:49;34.60;;;18.20;;
75218;SDS011;63801;49.414;19.474;2023-04-15T08:47:51;8.68;;;5.20;;
75218;SDS011;63801;49.414;19.474;2023-04-15T08:49:55;4.55;;;3.20;;
75218;SDS011;63801;49.414;19.474;2023-04-15T08:51:57;5.75;;;3.60;;
75218;SDS011;63801;49.414;19.474;2023-04-15T08:53:58;6.20;;;4.07;;
75218;SDS011;63801;49.414;19.474;2023-04-15T08:56:01;7.95;;;6.38;;
75218;SDS011;63801;49.414;19.474;2023-04-15T08:58:04;10.52;;;6.47;;
75218;SDS011;63801;49.414;19.474;2023-04-15T09:00:05;6.28;;;4.78;;
75218;SDS011;63801;49.414;19.474;2023-04-15T09:02:06;7.32;;;4.25;;
75218;SDS011;63801;49.414;19.474;2023-04-15T09:04:07;9.85;;;4.38;;
75218;SDS011;63801;49.414;19.474;2023-04-15T09:06:08;9.52;;;5.95;;
75218;SDS011;63801;49.414;19.474;2023-04-15T09:08:08;8.23;;;4.18;;
75218;SDS011;63801;49.414;19.474;2023-04-15T09:10:08;9.50;;;5.57;;
75218;SDS011;63801;49.414;19.474;2023-04-15T09:12:10;7.30;;;5.13;;
75218;SDS011;63801;49.414;19.474;2023-04-15T09:14:10;4.57;;;2.85;;
75218;SDS011;63801;49.414;19.474;2023-04-15T09:16:12;3.58;;;2.50;;
75218;SDS011;63801;49.414;19.474;2023-04-15T09:18:13;4.07;;;2.80;;
75218;SDS011;63801;49.414;19.474;2023-04-15T09:20:27;6.30;;;3.90;;
75218;SDS011;63801;49.414;19.474;2023-04-15T09:22:30;9.43;;;5.20;;
75218;SDS011;63801;49.414;19.474;2023-04-15T09:24:35;3.85;;;2.33;;
75218;SDS011;63801;49.414;19.474;2023-04-15T09:26:38;2.95;;;2.10;;
75218;SDS011;63801;49.414;19.474;2023-04-15T09:28:42;2.92;;;2.20;;
75218;SDS011;63801;49.414;19.474;2023-04-15T09:30:42;5.07;;;2.40;;
75218;SDS011;63801;49.414;19.474;2023-04-15T09:32:50;3.00;;;2.10;;
75218;SDS011;63801;49.414;19.474;2023-04-15T09:35:05;2.40;;;2.00;;
75218;SDS011;63801;49.414;19.474;2023-04-15T09:37:10;3.10;;;2.10;;
75218;SDS011;63801;49.414;19.474;2023-04-15T09:39:12;4.57;;;2.13;;
75218;SDS011;63801;49.414;19.474;2023-04-15T09:41:16;2.55;;;1.92;;
75218;SDS011;63801;49.414;19.474;2023-04-15T09:43:19;3.30;;;1.77;;
75218;SDS011;63801;49.414;19.474;2023-04-15T09:45:20;2.22;;;1.95;;
75218;SDS011;63801;49.414;19.474;2023-04-15T09:49:28;2.83;;;2.03;;
75218;SDS011;63801;49.414;19.474;2023-04-15T09:51:33;4.70;;;1.70;;
75218;SDS011;63801;49.414;19.474;2023-04-15T09:53:34;4.15;;;2.22;;
75218;SDS011;63801;49.414;19.474;2023-04-15T09:55:36;1.75;;;1.55;;
75218;SDS011;63801;49.414;19.474;2023-04-15T09:57:36;3.47;;;2.00;;
75218;SDS011;63801;49.414;19.474;2023-04-15T09:59:40;3.55;;;2.22;;
75218;SDS011;63801;49.414;19.474;2023-04-15T10:01:40;2.75;;;2.15;;
75218;SDS011;63801;49.414;19.474;2023-04-15T10:03:41;3.33;;;2.78;;
75218;SDS011;63801;49.414;19.474;2023-04-15T10:05:43;4.87;;;3.30;;
75218;SDS011;63801;49.414;19.474;2023-04-15T10:07:45;2.85;;;2.03;;
75218;SDS011;63801;49.414;19.474;2023-04-15T10:09:47;2.72;;;1.88;;
75218;SDS011;63801;49.414;19.474;2023-04-15T10:11:48;17.45;;;7.47;;
75218;SDS011;63801;49.414;19.474;2023-04-15T10:13:49;13.15;;;6.50;;
75218;SDS011;63801;49.414;19.474;2023-04-15T10:15:55;2.88;;;1.73;;
75218;SDS011;63801;49.414;19.474;2023-04-15T10:17:56;2.15;;;1.80;;
75218;SDS011;63801;49.414;19.474;2023-04-15T10:19:59;2.38;;;1.92;;
75218;SDS011;63801;49.414;19.474;2023-04-15T10:22:01;5.27;;;2.23;;
75218;SDS011;63801;49.414;19.474;2023-04-15T10:24:02;10.80;;;4.65;;
75218;SDS011;63801;49.414;19.474;2023-04-15T10:26:03;12.95;;;6.38;;
75218;SDS011;63801;49.414;19.474;2023-04-15T10:28:05;7.55;;;4.10;;
75218;SDS011;63801;49.414;19.474;2023-04-15T10:30:06;4.07;;;2.85;;
75218;SDS011;63801;49.414;19.474;2023-04-15T10:32:08;7.82;;;4.20;;
75218;SDS011;63801;49.414;19.474;2023-04-15T10:34:09;3.20;;;1.95;;
75218;SDS011;63801;49.414;19.474;2023-04-15T10:36:10;3.65;;;1.85;;
75218;SDS011;63801;49.414;19.474;2023-04-15T10:40:38;3.25;;;1.83;;
75218;SDS011;63801;49.414;19.474;2023-04-15T10:42:38;5.35;;;2.45;;
75218;SDS011;63801;49.414;19.474;2023-04-15T10:44:41;4.05;;;2.13;;
75218;SDS011;63801;49.414;19.474;2023-04-15T10:46:43;9.68;;;5.32;;
75218;SDS011;63801;49.414;19.474;2023-04-15T10:48:48;12.60;;;6.27;;
75218;SDS011;63801;49.414;19.474;2023-04-15T10:51:01;2.95;;;1.80;;
75218;SDS011;63801;49.414;19.474;2023-04-15T10:53:02;2.78;;;1.70;;
75218;SDS011;63801;49.414;19.474;2023-04-15T10:57:20;3.67;;;2.38;;
75218;SDS011;63801;49.414;19.474;2023-04-15T10:59:21;10.02;;;5.07;;
75218;SDS011;63801;49.414;19.474;2023-04-15T11:01:22;8.40;;;4.53;;
75218;SDS011;63801;49.414;19.474;2023-04-15T11:03:42;5.00;;;3.10;;
75218;SDS011;63801;49.414;19.474;2023-04-15T11:05:49;2.05;;;1.85;;
75218;SDS011;63801;49.414;19.474;2023-04-15T11:07:52;2.20;;;1.85;;
75218;SDS011;63801;49.414;19.474;2023-04-15T11:09:54;2.75;;;1.90;;
75218;SDS011;63801;49.414;19.474;2023-04-15T11:12:05;2.63;;;2.08;;
75218;SDS011;63801;49.414;19.474;2023-04-15T11:14:13;3.80;;;2.33;;
75218;SDS011;63801;49.414;19.474;2023-04-15T11:16:15;2.17;;;1.83;;
75218;SDS011;63801;49.414;19.474;2023-04-15T11:18:22;3.63;;;2.10;;
75218;SDS011;63801;49.414;19.474;2023-04-15T11:20:24;5.32;;;2.10;;
75218;SDS011;63801;49.414;19.474;2023-04-15T11:22:25;2.30;;;1.75;;
75218;SDS011;63801;49.414;19.474;2023-04-15T11:24:26;2.67;;;2.03;;
75218;SDS011;63801;49.414;19.474;2023-04-15T11:26:26;2.15;;;1.80;;
75218;SDS011;63801;49.414;19.474;2023-04-15T11:28:27;4.15;;;1.98;;
75218;SDS011;63801;49.414;19.474;2023-04-15T11:30:33;3.97;;;2.60;;
75218;SDS011;63801;49.414;19.474;2023-04-15T11:32:34;5.32;;;2.25;;
75218;SDS011;63801;49.414;19.474;2023-04-15T11:34:35;3.03;;;2.20;;
75218;SDS011;63801;49.414;19.474;2023-04-15T11:36:35;2.53;;;2.10;;
75218;SDS011;63801;49.414;19.474;2023-04-15T11:38:35;2.65;;;2.20;;
75218;SDS011;63801;49.414;19.474;2023-04-15T11:40:37;3.15;;;2.20;;
75218;SDS011;63801;49.414;19.474;2023-04-15T11:42:38;3.75;;;2.15;;
75218;SDS011;63801;49.414;19.474;2023-04-15T11:44:38;3.13;;;2.20;;
75218;SDS011;63801;49.414;19.474;2023-04-15T11:46:39;5.20;;;2.92;;
75218;SDS011;63801;49.414;19.474;2023-04-15T11:48:41;4.40;;;2.85;;
75218;SDS011;63801;49.414;19.474;2023-04-15T11:50:43;5.90;;;3.47;;
75218;SDS011;63801;49.414;19.474;2023-04-15T11:52:53;5.63;;;2.95;;
75218;SDS011;63801;49.414;19.474;2023-04-15T11:55:00;4.35;;;2.85;;
75218;SDS011;63801;49.414;19.474;2023-04-15T11:57:03;3.05;;;2.28;;
75218;SDS011;63801;49.414;19.474;2023-04-15T11:59:03;4.10;;;2.10;;
75218;SDS011;63801;49.414;19.474;2023-04-15T12:01:04;3.63;;;2.40;;
75218;SDS011;63801;49.414;19.474;2023-04-15T12:05:24;3.20;;;2.03;;
75218;SDS011;63801;49.414;19.474;2023-04-15T12:07:25;6.93;;;4.43;;